Sign-in with your pilot id or email, or register

ICAO: EDDC Name / Country: Dresden Airport / Germany
Latitude: 51.1328 Longitude: 13.7672
Total Arrivals:
Strict Standards: Non-static method AirportData::getarrflights() should not be called statically, assuming $this from incompatible context in /var/www/customers/vh-7192/web/home/phpvms/core/templates/airport_info.tpl on line 18
0
Total Departures:
Strict Standards: Non-static method AirportData::getdeptflights() should not be called statically, assuming $this from incompatible context in /var/www/customers/vh-7192/web/home/phpvms/core/templates/airport_info.tpl on line 21
1
Latest Arrival: (-) Latest Departure: MTA11P (EDDC-LHBP) Tibor Berces
Metar: EDDC 261350Z 26009KT 230V300 9999 RA BKN007 OVC015 08/07 Q0993 TEMPO 30015G25KT -RA
More info

Charts for EDDC


NOTAM


Warning: file_get_contents(http://api.vateud.net/notams/EDDC.json): failed to open stream: Redirection limit reached, aborting in /var/www/customers/vh-7192/web/home/phpvms/core/common/NOTAMSData.class.php on line 18

Warning: Invalid argument supplied for foreach() in /var/www/customers/vh-7192/web/home/phpvms/core/common/NOTAMSData.class.php on line 22

Dresden Airport